JOEY weather

Joeys
Tupelo, Arkansas, United States

Public forecast

Using degrees Fahrenheit for public forecast. Weather courtesy of forecast.io.

METAR (pilot weather report)

Closest report is Newport Regional Airport, 16.6 nm (30.8 km) NNE. Retrieved UTC (0 seconds ago):

TAF (pilot weather forecast)

Closest forecast is Jonesboro Municipal Airport, 43.0 nm (79.7 km) NE. Retrieved 2019/07/15 12:34 UTC (5 hours ago):

TAF KJBR 151132Z 1512/1612 09012G18KT 4SM -RA BR SCT006 BKN010 OVC025 TEMPO 1512/1516 2SM RA BR OVC006 FM151600 13015G22KT P6SM -RA SCT006 BKN012 OVC030 FM151800 14014G22KT P6SM -RA VCTS SCT015CB OVC050 FM160200 15012KT P6SM VCSH SCT015 BKN040 OVC090 TEMPO 1603/1607 SCT008 OVC015 FM160700 17011KT 6SM -RA BKN008 OVC025